Time;durP1;ratioP1;P1;durP2;ratioP2;P2;SDS_P1;SDS_P2;PMS_P1;PMS_P2;Temp;Humidity;BMP_temperature;BMP_pressure;BME280_temperature;BME280_humidity;BME280_pressure;Samples;Min_cycle;Max_cycle;Signal;HPM_P1;HPM_P2
2021/12/27 00:00:21;;;;;;;30.27;18.20;;;2.10;99.90;;;;;;5011740;28;20592;-79
2021/12/27 00:02:50;;;;;;;27.10;17.70;;;2.10;99.90;;;;;;5011774;28;21034;-83
2021/12/27 00:05:18;;;;;;;33.60;19.67;;;2.10;99.90;;;;;;5030438;28;20211;-84
2021/12/27 00:07:48;;;;;;;35.37;19.33;;;2.10;99.90;;;;;;5030579;28;20227;-81
2021/12/27 00:10:16;;;;;;;40.03;20.33;;;2.10;99.90;;;;;;5013174;28;20583;-81
2021/12/27 00:12:43;;;;;;;42.37;20.07;;;2.10;99.90;;;;;;5011106;28;20202;-86
2021/12/27 00:15:10;;;;;;;35.70;20.50;;;2.10;99.90;;;;;;5011237;28;20602;-84
2021/12/27 00:17:39;;;;;;;32.37;19.50;;;2.10;99.90;;;;;;5011553;28;20607;-83
2021/12/27 00:20:08;;;;;;;37.37;21.77;;;2.10;99.90;;;;;;5011272;28;20207;-81
2021/12/27 00:22:34;;;;;;;37.57;19.03;;;2.10;99.90;;;;;;5011609;28;20207;-85
2021/12/27 00:25:01;;;;;;;41.37;21.03;;;2.10;99.90;;;;;;5031765;28;20210;-85
2021/12/27 00:27:28;;;;;;;36.40;21.23;;;2.20;99.90;;;;;;5027670;28;20219;-83
2021/12/27 00:29:55;;;;;;;37.50;20.07;;;2.10;99.90;;;;;;5011036;28;20210;-86
2021/12/27 00:32:22;;;;;;;44.63;22.40;;;2.10;99.90;;;;;;5012028;28;20214;-80
2021/12/27 00:34:49;;;;;;;37.07;20.43;;;2.20;99.90;;;;;;5011268;28;20215;-83
2021/12/27 00:37:17;;;;;;;40.43;20.90;;;2.10;99.90;;;;;;5013760;28;20233;-84
2021/12/27 00:39:44;;;;;;;44.90;21.80;;;2.10;99.90;;;;;;5031538;28;20198;-83
2021/12/27 00:42:11;;;;;;;44.83;23.27;;;2.10;99.90;;;;;;5026522;28;20338;-80
2021/12/27 00:44:38;;;;;;;50.00;24.53;;;2.10;99.90;;;;;;5011468;28;20210;-86
2021/12/27 00:47:05;;;;;;;55.27;24.90;;;2.10;99.90;;;;;;5011073;28;20231;-84
2021/12/27 00:49:32;;;;;;;50.03;22.10;;;2.10;99.90;;;;;;5010044;28;20214;-82
2021/12/27 00:51:58;;;;;;;46.50;22.90;;;2.10;99.90;;;;;;5021445;28;20233;-80
2021/12/27 00:54:26;;;;;;;54.90;21.47;;;2.10;99.90;;;;;;5030010;28;20227;-81
2021/12/27 00:56:53;;;;;;;42.73;22.03;;;2.20;99.90;;;;;;5029780;28;20206;-80
2021/12/27 00:59:20;;;;;;;45.97;24.07;;;2.20;99.90;;;;;;5030216;28;20214;-84
2021/12/27 01:01:47;;;;;;;46.10;22.33;;;2.20;99.90;;;;;;5016158;28;20572;-82
2021/12/27 01:04:14;;;;;;;45.50;23.00;;;2.20;99.90;;;;;;5008186;28;20203;-84
2021/12/27 01:06:41;;;;;;;43.73;23.87;;;2.20;99.90;;;;;;5007907;28;20214;-86
2021/12/27 01:09:08;;;;;;;42.40;21.07;;;2.20;99.90;;;;;;5012139;28;20215;-86
2021/12/27 01:11:41;;;;;;;51.40;24.70;;;2.20;99.90;;;;;;5009528;28;20199;-81
2021/12/27 01:14:13;;;;;;;47.20;23.53;;;2.20;99.90;;;;;;5024881;28;20214;-87
2021/12/27 01:16:41;;;;;;;51.37;23.80;;;2.20;99.90;;;;;;5031490;28;20207;-84
2021/12/27 01:19:09;;;;;;;57.07;27.00;;;2.20;99.90;;;;;;5030110;28;20198;-84
2021/12/27 01:21:36;;;;;;;51.77;24.03;;;2.20;99.90;;;;;;5027447;28;20191;-86
2021/12/27 01:24:05;;;;;;;42.80;22.30;;;2.20;99.90;;;;;;5012052;28;20219;-87
2021/12/27 01:26:33;;;;;;;46.97;23.07;;;2.20;99.90;;;;;;5009480;28;20572;-87
2021/12/27 01:29:01;;;;;;;45.33;24.40;;;2.30;99.90;;;;;;5015973;28;20265;-87
2021/12/27 01:31:29;;;;;;;50.97;24.87;;;2.30;99.90;;;;;;5030110;28;20262;-85
2021/12/27 01:33:56;;;;;;;49.77;23.73;;;2.30;99.90;;;;;;5030358;28;20207;-86
2021/12/27 01:36:23;;;;;;;65.73;26.87;;;2.30;99.90;;;;;;5011366;28;20211;-84
2021/12/27 01:38:50;;;;;;;49.63;24.83;;;2.30;99.90;;;;;;5011098;28;20214;-85
2021/12/27 01:41:18;;;;;;;69.47;26.53;;;2.30;99.90;;;;;;5013252;28;20301;-86
2021/12/27 01:43:46;;;;;;;53.70;25.43;;;2.30;99.90;;;;;;5019788;28;20207;-86
2021/12/27 01:46:16;;;;;;;48.37;25.83;;;2.30;99.90;;;;;;5033039;28;20205;-85
2021/12/27 01:48:48;;;;;;;59.17;27.27;;;2.30;99.90;;;;;;5032287;28;20617;-85
2021/12/27 01:51:17;;;;;;;54.27;26.57;;;2.30;99.90;;;;;;5021529;22;20546;-85
2021/12/27 01:53:46;;;;;;;49.37;24.77;;;2.30;99.90;;;;;;5050717;28;20237;-86
2021/12/27 01:56:14;;;;;;;58.17;25.67;;;2.40;99.90;;;;;;5039698;28;20202;-86
2021/12/27 01:58:42;;;;;;;50.70;25.73;;;2.40;99.90;;;;;;5031782;28;20520;-87
2021/12/27 02:01:10;;;;;;;60.50;26.03;;;2.40;99.90;;;;;;5031549;28;20214;-87
2021/12/27 02:03:41;;;;;;;51.80;24.23;;;2.40;99.90;;;;;;5029940;28;20218;-80
2021/12/27 02:06:09;;;;;;;41.70;24.00;;;2.40;99.90;;;;;;5029819;28;20191;-82
2021/12/27 02:08:38;;;;;;;50.67;25.87;;;2.40;99.90;;;;;;5028352;28;20229;-84
2021/12/27 02:11:06;;;;;;;48.53;24.63;;;2.40;99.90;;;;;;5044168;28;20209;-84
2021/12/27 02:13:33;;;;;;;41.40;24.00;;;2.40;99.90;;;;;;5050833;28;20209;-86
2021/12/27 02:16:00;;;;;;;49.50;24.43;;;2.40;99.90;;;;;;5049982;28;20206;-84
2021/12/27 02:18:27;;;;;;;47.73;24.17;;;2.40;99.90;;;;;;5042935;28;20201;-85
2021/12/27 02:20:55;;;;;;;49.87;23.70;;;2.50;99.90;;;;;;5030081;28;20205;-85
2021/12/27 02:23:23;;;;;;;44.27;23.87;;;2.50;99.90;;;;;;5030420;28;20579;-85
2021/12/27 02:25:52;;;;;;;52.63;26.80;;;2.50;99.90;;;;;;5029062;28;20234;-87
2021/12/27 02:28:20;;;;;;;53.37;24.63;;;2.50;99.90;;;;;;5028524;28;20230;-88
2021/12/27 02:30:49;;;;;;;54.30;24.73;;;2.50;99.90;;;;;;5029670;28;20602;-86
2021/12/27 02:33:16;;;;;;;51.47;25.27;;;2.60;99.90;;;;;;5030480;28;20207;-86
2021/12/27 02:35:45;;;;;;;43.30;24.07;;;2.60;99.90;;;;;;5030748;28;20217;-85
2021/12/27 02:38:18;;;;;;;50.53;25.97;;;2.60;99.90;;;;;;5050986;28;20213;-86
2021/12/27 02:40:46;;;;;;;46.97;24.37;;;2.60;99.90;;;;;;5050307;28;20271;-84
2021/12/27 02:43:16;;;;;;;41.53;22.20;;;2.60;99.90;;;;;;5032430;28;20502;-85
2021/12/27 02:45:45;;;;;;;41.20;23.50;;;2.60;99.90;;;;;;5030061;28;20514;-86
2021/12/27 02:48:13;;;;;;;48.50;24.33;;;2.60;99.90;;;;;;5027968;28;20793;-87
2021/12/27 02:50:41;;;;;;;48.43;25.73;;;2.60;99.90;;;;;;5027051;28;20198;-87
2021/12/27 02:53:09;;;;;;;41.87;23.23;;;2.60;99.90;;;;;;5029036;28;20234;-85
2021/12/27 02:55:37;;;;;;;40.87;23.07;;;2.60;99.90;;;;;;5030175;28;20215;-86
2021/12/27 02:58:05;;;;;;;42.87;23.17;;;2.60;99.90;;;;;;5031936;28;20660;-87
2021/12/27 03:00:35;;;;;;;46.63;25.17;;;2.60;99.90;;;;;;5035596;28;20631;-87
2021/12/27 03:03:02;;;;;;;45.03;23.30;;;2.60;99.90;;;;;;5034884;28;20206;-87
2021/12/27 03:05:30;;;;;;;56.07;25.97;;;2.60;99.90;;;;;;5035164;28;20210;-84
2021/12/27 03:07:57;;;;;;;52.70;25.00;;;2.70;99.90;;;;;;5035183;28;20229;-81
2021/12/27 03:10:26;;;;;;;51.80;26.70;;;2.70;99.90;;;;;;5035035;28;20199;-79
2021/12/27 03:12:57;;;;;;;51.43;25.17;;;2.70;99.90;;;;;;5034420;28;20203;-87
2021/12/27 03:15:24;;;;;;;45.53;24.90;;;2.70;99.90;;;;;;5034750;28;20214;-87
2021/12/27 03:17:52;;;;;;;43.57;23.70;;;2.70;99.90;;;;;;5034254;28;20203;-88
2021/12/27 03:20:23;;;;;;;50.47;25.03;;;2.70;99.90;;;;;;5034745;28;20203;-87
2021/12/27 03:22:50;;;;;;;48.20;25.30;;;2.70;99.90;;;;;;5033858;28;20211;-84
2021/12/27 03:25:18;;;;;;;50.93;26.43;;;2.70;99.90;;;;;;5033046;28;20210;-88
2021/12/27 03:27:46;;;;;;;45.33;23.20;;;2.70;99.90;;;;;;5033595;28;20225;-87
2021/12/27 03:30:17;;;;;;;46.43;25.10;;;2.70;99.90;;;;;;5033214;28;20219;-82
2021/12/27 03:32:44;;;;;;;43.80;24.27;;;2.70;99.90;;;;;;5032471;28;20669;-80
2021/12/27 03:35:14;;;;;;;41.80;23.87;;;2.70;99.90;;;;;;5033533;28;20229;-85
2021/12/27 03:37:44;;;;;;;43.37;21.87;;;2.70;99.90;;;;;;5031849;28;20661;-83
2021/12/27 03:40:13;;;;;;;43.43;22.57;;;2.70;99.90;;;;;;5033280;28;20197;-88
2021/12/27 03:42:40;;;;;;;42.70;21.77;;;2.70;99.90;;;;;;5033553;28;20718;-87
2021/12/27 03:45:09;;;;;;;37.90;20.87;;;2.70;99.90;;;;;;5040723;28;20618;-85
2021/12/27 03:47:37;;;;;;;41.57;23.93;;;2.70;99.90;;;;;;5051308;28;20209;-85
2021/12/27 03:50:05;;;;;;;41.07;21.90;;;2.70;99.90;;;;;;5051834;28;20201;-87
2021/12/27 03:52:32;;;;;;;42.33;21.13;;;2.70;99.90;;;;;;5051002;28;20244;-88
2021/12/27 03:54:59;;;;;;;38.53;23.47;;;2.80;99.90;;;;;;5052866;28;20213;-86
2021/12/27 03:57:26;;;;;;;39.80;21.50;;;2.80;99.90;;;;;;5052738;28;20221;-87
2021/12/27 04:00:15;;;;;;;39.67;20.57;;;2.80;99.90;;;;;;5052949;28;20256;-92
2021/12/27 04:02:43;;;;;;;42.40;22.33;;;2.80;99.90;;;;;;5052447;28;20215;-81
2021/12/27 04:05:10;;;;;;;37.47;20.23;;;2.80;99.90;;;;;;5032516;28;20632;-83
2021/12/27 04:07:43;;;;;;;38.77;22.77;;;2.80;99.90;;;;;;5032363;28;20206;-82
2021/12/27 04:10:12;;;;;;;42.67;24.57;;;2.80;99.90;;;;;;5031956;28;20195;-83
2021/12/27 04:12:39;;;;;;;36.33;22.27;;;2.80;99.90;;;;;;5033530;28;20214;-85
2021/12/27 04:15:11;;;;;;;39.03;21.13;;;2.80;99.90;;;;;;5052579;28;20206;-92
2021/12/27 04:17:38;;;;;;;43.20;23.07;;;2.80;99.90;;;;;;5053222;28;20190;-84
2021/12/27 04:20:07;;;;;;;39.47;22.33;;;2.80;99.90;;;;;;5052137;28;20194;-86
2021/12/27 04:22:34;;;;;;;38.23;22.60;;;2.80;99.90;;;;;;5049583;28;20202;-86
2021/12/27 04:25:01;;;;;;;44.03;22.77;;;2.80;99.90;;;;;;5053180;28;20205;-90
2021/12/27 04:27:28;;;;;;;39.70;22.93;;;2.80;99.90;;;;;;5053399;28;20503;-90
2021/12/27 04:29:55;;;;;;;45.20;24.00;;;2.80;99.90;;;;;;5054244;28;20221;-92
2021/12/27 04:32:22;;;;;;;43.67;23.00;;;2.80;99.90;;;;;;5043798;28;20220;-90
2021/12/27 04:34:49;;;;;;;40.43;21.83;;;2.90;99.90;;;;;;5035662;28;20197;-87
2021/12/27 04:37:17;;;;;;;37.27;21.17;;;2.90;99.90;;;;;;5054256;28;20202;-85
2021/12/27 04:39:44;;;;;;;36.70;21.37;;;2.90;99.90;;;;;;5053997;28;20204;-82
2021/12/27 04:42:11;;;;;;;31.50;20.87;;;2.90;99.90;;;;;;5054280;28;20229;-88
2021/12/27 04:44:38;;;;;;;35.87;19.90;;;2.90;99.90;;;;;;5040040;28;20288;-90
2021/12/27 04:47:05;;;;;;;28.63;18.30;;;2.90;99.90;;;;;;5033675;28;20213;-89
2021/12/27 04:49:32;;;;;;;39.40;22.13;;;2.90;99.90;;;;;;5032456;28;20229;-90
2021/12/27 04:51:58;;;;;;;36.73;22.63;;;3.00;99.90;;;;;;5032859;28;20646;-88
2021/12/27 04:54:27;;;;;;;38.03;21.23;;;2.90;99.90;;;;;;5033528;28;20183;-88
2021/12/27 04:56:54;;;;;;;35.27;20.13;;;3.00;99.90;;;;;;5032604;28;20218;-87
2021/12/27 04:59:21;;;;;;;38.53;22.43;;;3.00;99.90;;;;;;5032410;28;20221;-90
2021/12/27 05:01:47;;;;;;;43.57;23.37;;;3.00;99.90;;;;;;5032855;28;20257;-80
2021/12/27 05:04:14;;;;;;;44.63;23.40;;;3.00;99.90;;;;;;5049088;28;20201;-81
2021/12/27 05:06:41;;;;;;;38.37;21.23;;;3.00;99.90;;;;;;5051678;28;20205;-83
2021/12/27 05:09:08;;;;;;;40.90;22.73;;;3.00;99.90;;;;;;5051968;28;20226;-89
2021/12/27 05:11:36;;;;;;;39.57;19.53;;;3.10;99.90;;;;;;5048276;28;20203;-91
2021/12/27 05:14:03;;;;;;;39.73;22.27;;;3.10;99.90;;;;;;5031871;28;20206;-90
2021/12/27 05:16:30;;;;;;;48.23;22.13;;;3.10;99.90;;;;;;5030914;28;20207;-92
2021/12/27 05:18:57;;;;;;;46.27;23.57;;;3.10;99.90;;;;;;5030629;28;20838;-91
2021/12/27 05:21:23;;;;;;;42.63;21.43;;;3.10;99.90;;;;;;5029860;28;20214;-86
2021/12/27 05:23:50;;;;;;;42.27;21.87;;;3.10;99.90;;;;;;5033142;28;20199;-89
2021/12/27 05:26:17;;;;;;;41.93;21.10;;;3.10;99.90;;;;;;5033404;28;20893;-90
2021/12/27 05:28:45;;;;;;;44.27;21.30;;;3.20;99.90;;;;;;5032771;28;20236;-88
2021/12/27 05:31:15;;;;;;;38.83;21.17;;;3.10;99.90;;;;;;5033106;28;20456;-89
2021/12/27 05:33:42;;;;;;;37.30;20.23;;;3.20;99.90;;;;;;5032082;28;20637;-90
2021/12/27 05:36:12;;;;;;;38.07;19.63;;;3.20;99.90;;;;;;5032097;28;20199;-81
2021/12/27 05:38:39;;;;;;;43.77;21.67;;;3.20;99.90;;;;;;5045585;28;20202;-86
2021/12/27 05:41:06;;;;;;;37.17;21.00;;;3.20;99.90;;;;;;5046246;28;20218;-90
2021/12/27 05:43:33;;;;;;;55.43;22.50;;;3.20;99.90;;;;;;5030955;28;20206;-88
2021/12/27 05:46:02;;;;;;;36.97;20.20;;;3.20;99.90;;;;;;5046395;28;20308;-89
2021/12/27 05:48:29;;;;;;;37.43;21.20;;;3.20;99.90;;;;;;5051337;28;20229;-88
2021/12/27 05:50:56;;;;;;;34.47;20.10;;;3.20;99.90;;;;;;5050692;28;20206;-89
2021/12/27 05:53:23;;;;;;;41.30;21.97;;;3.20;99.90;;;;;;5050493;28;20249;-90
2021/12/27 05:55:51;;;;;;;34.63;19.33;;;3.30;99.90;;;;;;5048471;28;20232;-82
2021/12/27 05:58:18;;;;;;;45.80;22.63;;;3.30;99.90;;;;;;5050011;28;20210;-90
2021/12/27 06:00:47;;;;;;;57.30;24.50;;;3.30;99.90;;;;;;5038529;28;20479;-90
2021/12/27 06:03:15;;;;;;;40.13;21.40;;;3.30;99.90;;;;;;5033645;28;20261;-88
2021/12/27 06:05:42;;;;;;;31.37;19.40;;;3.30;99.90;;;;;;5032730;28;20206;-90
2021/12/27 06:08:09;;;;;;;52.27;21.63;;;3.30;99.90;;;;;;5031753;28;20207;-87
2021/12/27 06:10:36;;;;;;;36.33;20.87;;;3.30;99.90;;;;;;5029928;28;20230;-86
2021/12/27 06:13:02;;;;;;;43.73;20.83;;;3.30;99.90;;;;;;5029569;28;20207;-88
2021/12/27 06:15:30;;;;;;;38.03;19.97;;;3.30;99.90;;;;;;5029483;28;20209;-84
2021/12/27 06:17:57;;;;;;;53.07;23.00;;;3.30;99.90;;;;;;5029963;28;20205;-84
2021/12/27 06:20:25;;;;;;;35.63;21.03;;;3.30;99.90;;;;;;5047044;28;20260;-85
2021/12/27 06:22:55;;;;;;;36.23;21.03;;;3.40;99.90;;;;;;5052087;28;20206;-90
2021/12/27 06:25:22;;;;;;;36.97;21.23;;;3.40;99.90;;;;;;5032047;28;20223;-89
2021/12/27 06:27:49;;;;;;;41.50;21.67;;;3.40;99.90;;;;;;5031362;28;20202;-81
2021/12/27 06:30:17;;;;;;;39.10;21.70;;;3.40;99.90;;;;;;5039023;28;20521;-84
2021/12/27 06:32:44;;;;;;;34.07;19.97;;;3.40;99.90;;;;;;5048916;28;20213;-82
2021/12/27 06:35:12;;;;;;;34.60;21.13;;;3.40;99.90;;;;;;5045925;28;20606;-90
2021/12/27 06:37:41;;;;;;;35.03;20.67;;;3.40;99.90;;;;;;5032092;28;20187;-88
2021/12/27 06:40:10;;;;;;;33.93;21.80;;;3.40;99.90;;;;;;5031390;28;20194;-89
2021/12/27 06:42:37;;;;;;;39.23;20.73;;;3.40;99.90;;;;;;5030388;28;20658;-90
2021/12/27 06:45:05;;;;;;;44.37;22.53;;;3.50;99.90;;;;;;5030658;28;20518;-86
2021/12/27 06:47:32;;;;;;;59.63;25.10;;;3.50;99.90;;;;;;5029335;28;20602;-86
2021/12/27 06:49:59;;;;;;;35.53;20.93;;;3.50;99.90;;;;;;5029969;28;20337;-84
2021/12/27 06:52:26;;;;;;;39.50;21.70;;;3.50;99.90;;;;;;5030223;28;20237;-91
2021/12/27 06:54:54;;;;;;;75.00;24.73;;;3.50;99.90;;;;;;5030225;28;20207;-89
2021/12/27 06:57:21;;;;;;;51.90;23.27;;;3.50;99.90;;;;;;5029466;28;20214;-86
2021/12/27 06:59:48;;;;;;;37.50;20.33;;;3.60;99.90;;;;;;5029645;28;20205;-88
2021/12/27 07:02:15;;;;;;;33.13;19.07;;;3.60;99.90;;;;;;5030475;28;20202;-91
2021/12/27 07:04:42;;;;;;;34.70;19.53;;;3.60;99.90;;;;;;5029821;28;20210;-88
2021/12/27 07:07:09;;;;;;;100.97;25.90;;;3.60;99.90;;;;;;5030323;28;20211;-90
2021/12/27 07:09:36;;;;;;;34.30;21.03;;;3.60;99.90;;;;;;5028161;28;20241;-80
2021/12/27 07:12:07;;;;;;;34.30;20.97;;;3.60;99.90;;;;;;5029136;28;20210;-80
2021/12/27 07:14:34;;;;;;;41.77;21.93;;;3.60;99.90;;;;;;5028868;28;20210;-84
2021/12/27 07:17:00;;;;;;;44.73;21.30;;;3.60;99.90;;;;;;5028405;28;20218;-85
2021/12/27 07:19:28;;;;;;;45.37;22.57;;;3.60;99.90;;;;;;5028683;28;20241;-88
2021/12/27 07:21:55;;;;;;;35.97;20.53;;;3.70;99.90;;;;;;5030823;28;20211;-86
2021/12/27 07:24:21;;;;;;;73.87;24.93;;;3.70;99.90;;;;;;5048664;28;20198;-86
2021/12/27 07:26:48;;;;;;;67.97;24.20;;;3.70;99.90;;;;;;5049679;28;20326;-88
2021/12/27 07:29:17;;;;;;;40.47;21.97;;;3.70;99.90;;;;;;5048801;28;20226;-82
2021/12/27 07:31:43;;;;;;;48.10;22.90;;;3.70;99.90;;;;;;5026622;28;20219;-91
2021/12/27 07:34:12;;;;;;;46.50;22.80;;;3.80;99.90;;;;;;5032972;28;20199;-91
2021/12/27 07:36:38;;;;;;;43.47;22.30;;;3.80;99.90;;;;;;5032236;28;20203;-91
2021/12/27 07:39:06;;;;;;;55.43;23.07;;;3.80;99.90;;;;;;5034224;28;20616;-86
2021/12/27 07:41:33;;;;;;;78.30;24.70;;;3.80;99.90;;;;;;5051490;28;20301;-88
2021/12/27 07:44:00;;;;;;;45.47;22.83;;;3.80;99.90;;;;;;5050685;28;20593;-92
2021/12/27 07:46:28;;;;;;;41.60;23.67;;;3.80;99.90;;;;;;5054427;28;20194;-92
2021/12/27 07:48:55;;;;;;;67.43;24.50;;;3.80;99.90;;;;;;5051885;28;20214;-92
2021/12/27 07:51:22;;;;;;;65.30;25.00;;;3.80;99.90;;;;;;5038771;28;20213;-91
2021/12/27 07:53:49;;;;;;;46.37;23.67;;;3.80;99.90;;;;;;5037346;28;20238;-90
2021/12/27 07:56:15;;;;;;;56.03;23.80;;;3.90;99.90;;;;;;5055311;28;20220;-91
2021/12/27 07:58:42;;;;;;;72.17;27.30;;;3.80;99.90;;;;;;5039431;28;20205;-81
2021/12/27 08:01:09;;;;;;;48.57;23.17;;;3.80;99.90;;;;;;5041409;28;20205;-91
2021/12/27 08:03:37;;;;;;;49.37;24.60;;;3.80;99.90;;;;;;5055158;28;20205;-91
2021/12/27 08:06:04;;;;;;;74.83;24.43;;;3.80;99.90;;;;;;5055041;28;20220;-92
2021/12/27 08:08:31;;;;;;;61.93;24.47;;;3.80;99.90;;;;;;5053296;28;20765;-90
2021/12/27 08:10:58;;;;;;;45.67;23.67;;;3.90;99.90;;;;;;5052275;28;20229;-91
2021/12/27 08:13:25;;;;;;;50.33;24.83;;;3.90;99.90;;;;;;5051580;28;20186;-87
2021/12/27 08:15:52;;;;;;;42.77;23.23;;;3.90;99.90;;;;;;5053534;28;20210;-86
2021/12/27 08:18:20;;;;;;;41.30;21.20;;;3.90;99.90;;;;;;5052857;28;20201;-82
2021/12/27 08:20:48;;;;;;;51.87;24.63;;;3.90;99.90;;;;;;5051230;28;20216;-87
2021/12/27 08:23:15;;;;;;;49.23;23.00;;;3.90;99.90;;;;;;5052288;28;20252;-82
2021/12/27 08:25:42;;;;;;;63.67;24.90;;;3.90;99.90;;;;;;5031789;28;20630;-89
2021/12/27 08:28:09;;;;;;;61.20;25.83;;;3.90;99.90;;;;;;5030032;28;20206;-88
2021/12/27 08:30:36;;;;;;;59.53;23.90;;;3.90;99.90;;;;;;5030776;28;20218;-86
2021/12/27 08:33:03;;;;;;;43.63;21.67;;;3.90;99.90;;;;;;5030988;28;20537;-85
2021/12/27 08:35:30;;;;;;;52.70;25.73;;;3.90;99.90;;;;;;5031402;28;20211;-87
2021/12/27 08:41:28;;;;;;;47.73;20.90;;;4.00;99.90;;;;;;5017269;28;20823;-86
2021/12/27 08:43:56;;;;;;;45.27;21.97;;;4.00;99.90;;;;;;5051224;28;20287;-84
2021/12/27 08:46:23;;;;;;;47.50;23.53;;;4.00;99.90;;;;;;5051091;28;20212;-86
2021/12/27 08:48:50;;;;;;;91.13;27.13;;;4.10;99.90;;;;;;5044448;28;20226;-89
2021/12/27 08:51:17;;;;;;;43.73;23.47;;;4.10;99.90;;;;;;5031801;28;20222;-88
2021/12/27 08:53:44;;;;;;;43.83;22.93;;;4.10;99.90;;;;;;5031269;28;20243;-86
2021/12/27 08:56:11;;;;;;;54.33;25.83;;;4.10;99.90;;;;;;5025252;28;20588;-84
2021/12/27 08:58:40;;;;;;;55.37;25.93;;;4.20;99.90;;;;;;5031521;28;20206;-86
2021/12/27 09:01:07;;;;;;;73.57;27.10;;;4.20;99.90;;;;;;5030932;28;20203;-87
2021/12/27 09:03:34;;;;;;;53.80;24.73;;;4.20;99.90;;;;;;5029641;28;20202;-89
2021/12/27 09:06:01;;;;;;;58.83;26.63;;;4.30;99.90;;;;;;5029034;28;20217;-88
2021/12/27 09:08:28;;;;;;;50.47;25.03;;;4.30;99.90;;;;;;5028742;28;20210;-92
2021/12/27 09:10:58;;;;;;;44.80;24.17;;;4.40;99.90;;;;;;5030842;28;20218;-91
2021/12/27 09:13:27;;;;;;;43.43;21.77;;;4.40;99.90;;;;;;5040568;28;20205;-89
2021/12/27 09:15:56;;;;;;;67.40;26.83;;;4.40;99.90;;;;;;5033265;28;20209;-87
2021/12/27 09:18:23;;;;;;;40.77;22.37;;;4.40;99.90;;;;;;5032666;28;20268;-89
2021/12/27 09:20:50;;;;;;;49.27;24.70;;;4.50;99.90;;;;;;5030484;28;20217;-88
2021/12/27 09:23:17;;;;;;;52.90;23.47;;;4.50;99.90;;;;;;5028285;28;20203;-85
2021/12/27 09:25:45;;;;;;;58.03;25.90;;;4.50;99.90;;;;;;5028187;28;20217;-91
2021/12/27 09:28:13;;;;;;;61.70;27.03;;;4.50;99.90;;;;;;5030840;28;20289;-91
2021/12/27 09:30:40;;;;;;;63.60;28.07;;;4.60;99.90;;;;;;5031177;28;20226;-92
2021/12/27 09:33:08;;;;;;;48.17;23.23;;;4.60;99.90;;;;;;5031893;28;20558;-93
2021/12/27 09:35:36;;;;;;;63.60;27.50;;;4.60;99.90;;;;;;5031283;28;20213;-88
2021/12/27 09:38:03;;;;;;;62.10;27.70;;;4.60;99.90;;;;;;5032026;28;20222;-93
2021/12/27 09:40:30;;;;;;;61.40;26.20;;;4.70;99.90;;;;;;5048697;28;20217;-82
2021/12/27 09:42:57;;;;;;;51.43;24.30;;;4.70;99.90;;;;;;5048693;28;20213;-88
2021/12/27 09:45:24;;;;;;;62.40;25.60;;;4.80;99.90;;;;;;5039268;28;20228;-89
2021/12/27 09:47:52;;;;;;;90.90;27.60;;;4.80;99.90;;;;;;5049934;28;20205;-83
2021/12/27 09:50:25;;;;;;;54.07;26.77;;;4.80;99.90;;;;;;5051876;28;20654;-91
2021/12/27 09:52:53;;;;;;;81.60;28.60;;;4.90;99.90;;;;;;5039381;28;20238;-87
2021/12/27 09:55:20;;;;;;;141.93;33.10;;;4.90;99.90;;;;;;5031823;28;20202;-87
2021/12/27 09:57:47;;;;;;;100.23;31.67;;;4.90;99.90;;;;;;5031326;28;20209;-86
2021/12/27 10:00:15;;;;;;;133.13;34.43;;;5.00;99.90;;;;;;5031212;28;20494;-87
2021/12/27 10:02:42;;;;;;;211.63;39.67;;;5.00;99.90;;;;;;5041502;28;20221;-89
2021/12/27 10:05:09;;;;;;;97.93;33.80;;;5.00;99.90;;;;;;5052241;28;20206;-89
2021/12/27 10:07:41;;;;;;;74.43;30.10;;;5.00;99.90;;;;;;5051048;28;20208;-89
2021/12/27 10:10:10;;;;;;;107.77;33.17;;;5.10;99.90;;;;;;5045873;28;20234;-89
2021/12/27 10:12:37;;;;;;;126.67;34.90;;;5.10;99.90;;;;;;5032142;28;20198;-89
2021/12/27 10:15:07;;;;;;;57.77;27.63;;;5.20;99.90;;;;;;5039842;28;20218;-88
2021/12/27 10:17:37;;;;;;;86.93;31.03;;;5.20;99.90;;;;;;5050131;28;20205;-86
2021/12/27 10:20:12;;;;;;;89.77;33.53;;;5.20;99.90;;;;;;5049558;28;20296;-87
2021/12/27 10:22:42;;;;;;;104.73;39.07;;;5.20;99.90;;;;;;5031866;28;20281;-87
2021/12/27 10:25:13;;;;;;;104.53;41.53;;;5.30;99.90;;;;;;5032018;28;20191;-87
2021/12/27 10:27:40;;;;;;;85.23;43.37;;;5.30;99.90;;;;;;5031408;28;20195;-89
2021/12/27 10:30:13;;;;;;;156.13;50.23;;;5.40;99.90;;;;;;5039093;28;20225;-89
2021/12/27 10:32:41;;;;;;;86.03;41.97;;;5.40;99.90;;;;;;5051242;28;20297;-84
2021/12/27 10:35:10;;;;;;;237.83;52.50;;;5.50;99.90;;;;;;5037271;28;20214;-89
2021/12/27 10:37:38;;;;;;;146.80;50.17;;;5.50;99.90;;;;;;5029421;28;20213;-83
2021/12/27 10:40:09;;;;;;;95.47;48.87;;;5.50;99.90;;;;;;5034729;28;20251;-89
2021/12/27 10:42:38;;;;;;;189.33;55.17;;;5.60;99.90;;;;;;5052056;28;20241;-88
2021/12/27 10:45:08;;;;;;;240.10;55.10;;;5.70;99.90;;;;;;5050799;28;20217;-86
2021/12/27 10:47:38;;;;;;;121.57;47.50;;;5.70;99.90;;;;;;5050880;28;20366;-88
2021/12/27 10:50:12;;;;;;;88.57;42.70;;;5.70;99.90;;;;;;5051173;28;20218;-87
2021/12/27 10:52:57;;;;;;;148.03;50.77;;;5.70;99.90;;;;;;5036555;28;20241;-87
2021/12/27 10:55:30;;;;;;;182.77;49.17;;;5.70;99.90;;;;;;5030165;28;20206;-84
2021/12/27 10:58:12;;;;;;;135.30;46.73;;;5.70;99.90;;;;;;5029602;28;20301;-84
2021/12/27 11:00:41;;;;;;;101.13;42.33;;;5.70;99.90;;;;;;5029847;28;20206;-84
2021/12/27 11:03:08;;;;;;;143.87;40.80;;;5.70;99.90;;;;;;5029919;28;20214;-90
2021/12/27 11:05:37;;;;;;;81.30;36.93;;;5.70;99.90;;;;;;5029941;28;20206;-89
2021/12/27 11:08:06;;;;;;;131.03;43.47;;;5.70;99.90;;;;;;5030547;28;20205;-86
2021/12/27 11:10:36;;;;;;;93.67;42.37;;;5.70;99.90;;;;;;5037765;28;20233;-83
2021/12/27 11:13:05;;;;;;;84.33;45.57;;;5.70;99.90;;;;;;5050678;28;20198;-92
2021/12/27 11:15:35;;;;;;;88.00;46.47;;;5.80;99.90;;;;;;5030488;28;20207;-82
2021/12/27 11:18:03;;;;;;;79.67;41.53;;;5.80;99.90;;;;;;5031255;28;20281;-81
2021/12/27 11:20:30;;;;;;;67.33;34.67;;;5.80;99.90;;;;;;5039174;28;20490;-88
2021/12/27 11:22:59;;;;;;;63.37;31.40;;;5.80;99.90;;;;;;5053558;28;20205;-84
2021/12/27 11:25:32;;;;;;;80.03;32.43;;;5.90;99.90;;;;;;5053588;28;20202;-85
2021/12/27 11:28:01;;;;;;;67.00;31.60;;;5.90;99.90;;;;;;5059958;22;20667;-84
2021/12/27 11:30:32;;;;;;;73.13;30.03;;;5.90;99.90;;;;;;5053580;28;20221;-85
2021/12/27 11:33:09;;;;;;;63.77;29.10;;;5.90;99.90;;;;;;5052298;28;20206;-83
2021/12/27 11:35:39;;;;;;;59.50;27.37;;;5.90;99.90;;;;;;5050177;28;20289;-85
2021/12/27 11:38:06;;;;;;;58.57;27.37;;;5.90;99.90;;;;;;5034233;28;20634;-87
2021/12/27 11:40:45;;;;;;;53.83;26.83;;;5.90;99.90;;;;;;5034576;28;20203;-84
2021/12/27 11:43:14;;;;;;;58.20;26.30;;;5.90;99.90;;;;;;5034337;28;20214;-86
2021/12/27 11:45:44;;;;;;;49.37;27.20;;;5.90;99.90;;;;;;5051789;28;20632;-85
2021/12/27 11:48:13;;;;;;;57.63;27.47;;;5.90;99.90;;;;;;5055014;28;20190;-84
2021/12/27 11:51:04;;;;;;;60.63;27.37;;;5.80;99.90;;;;;;5052426;28;20225;-83
2021/12/27 11:53:32;;;;;;;54.03;26.13;;;5.90;99.90;;;;;;5044099;28;20264;-85
2021/12/27 11:55:59;;;;;;;108.37;30.80;;;5.90;99.90;;;;;;5037995;28;20203;-83
2021/12/27 11:58:34;;;;;;;80.30;28.93;;;5.90;99.90;;;;;;5036425;28;20253;-84
2021/12/27 12:01:02;;;;;;;98.37;28.17;;;5.90;99.90;;;;;;5035785;28;20241;-87
2021/12/27 12:03:39;;;;;;;85.50;28.03;;;5.90;99.90;;;;;;5037265;28;20202;-82
2021/12/27 12:06:07;;;;;;;75.37;28.20;;;5.90;99.90;;;;;;5031413;28;20194;-85
2021/12/27 12:08:50;;;;;;;74.63;25.53;;;5.90;99.90;;;;;;5030523;28;20210;-84
2021/12/27 12:11:17;;;;;;;49.10;24.40;;;6.00;99.90;;;;;;5029718;28;20218;-87
2021/12/27 12:13:47;;;;;;;52.67;26.30;;;6.00;99.90;;;;;;5029667;28;20237;-88
2021/12/27 12:16:15;;;;;;;53.27;25.47;;;6.00;99.90;;;;;;5033767;28;20249;-86
2021/12/27 12:19:04;;;;;;;76.93;26.90;;;6.00;99.90;;;;;;5032677;28;20784;-86
2021/12/27 12:21:39;;;;;;;51.63;24.57;;;6.00;99.90;;;;;;5032957;28;20210;-86
2021/12/27 12:24:14;;;;;;;56.03;25.47;;;6.10;99.90;;;;;;5033449;28;20202;-84
2021/12/27 12:26:52;;;;;;;47.40;24.70;;;6.10;99.90;;;;;;5033221;28;20241;-87
2021/12/27 12:29:21;;;;;;;51.80;24.30;;;6.10;99.90;;;;;;5032262;28;20218;-84
2021/12/27 12:31:50;;;;;;;61.90;26.23;;;6.10;99.90;;;;;;5032069;28;20226;-87
2021/12/27 12:34:19;;;;;;;49.77;25.40;;;6.10;99.90;;;;;;5032392;28;20587;-87
2021/12/27 12:36:50;;;;;;;60.50;27.33;;;6.20;99.90;;;;;;5031424;28;20202;-86
2021/12/27 12:39:18;;;;;;;54.93;24.97;;;6.20;99.90;;;;;;5031895;28;20191;-84
2021/12/27 12:41:45;;;;;;;58.10;28.17;;;6.20;99.90;;;;;;5032051;28;20594;-85
2021/12/27 12:44:12;;;;;;;60.87;27.33;;;6.20;99.90;;;;;;5031584;28;20618;-83